Wing, Illinois
Current Conditions -  °F | °C
As of 12:35 PM on Saturday 20 Dec 2014 (Local Time) from KPNT Reporting Station
Overcast Overcast  
Wind Chill: 26°   Ceiling: 6500
Heat Index: 34°   Visibility: 10mi
Dew Point: 28°   Wind: 9mph
Humidity: 81%   Direction: 170°S
Pressure: 30.26"   Gusts: NA
Location:  40.7521°N, 88.412°W
Report Text: KPNT 201835Z AUTO 17008KT 10SM OVC065 01/M02 A3026 RMK AO2 T00101020
Loading
Personal Weather Stations






























Interactive Weather Map New forecast layout! Learn more

10-Day Weather Forecast

Advertisements
Track Severe Weather on mobile